sensor_id;sensor_type;location;lat;lon;timestamp;pressure;altitude;pressure_sealevel;temperature;humidity
5455;BME280;2750;49.050;9.250;2023-01-28T00:01:28;99433.41;;;3.82;80.63
5455;BME280;2750;49.050;9.250;2023-01-28T00:06:30;99430.88;;;3.77;81.91
5455;BME280;2750;49.050;9.250;2023-01-28T00:11:32;99430.94;;;3.70;81.06
5455;BME280;2750;49.050;9.250;2023-01-28T00:16:33;99422.53;;;3.56;81.12
5455;BME280;2750;49.050;9.250;2023-01-28T00:21:36;99422.94;;;4.76;78.92
5455;BME280;2750;49.050;9.250;2023-01-28T00:26:38;99424.19;;;4.47;79.28
5455;BME280;2750;49.050;9.250;2023-01-28T00:31:39;99432.69;;;4.49;79.17
5455;BME280;2750;49.050;9.250;2023-01-28T00:36:42;99424.34;;;4.31;78.79
5455;BME280;2750;49.050;9.250;2023-01-28T00:41:44;99429.41;;;4.38;79.21
5455;BME280;2750;49.050;9.250;2023-01-28T00:46:46;99416.84;;;4.83;77.54
5455;BME280;2750;49.050;9.250;2023-01-28T00:51:49;99429.47;;;5.00;77.08
5455;BME280;2750;49.050;9.250;2023-01-28T00:56:50;99420.94;;;4.32;79.43
5455;BME280;2750;49.050;9.250;2023-01-28T01:01:52;99421.22;;;4.05;80.53
5455;BME280;2750;49.050;9.250;2023-01-28T01:07:13;99420.75;;;4.45;80.11
5455;BME280;2750;49.050;9.250;2023-01-28T01:12:14;99424.19;;;4.47;79.64
5455;BME280;2750;49.050;9.250;2023-01-28T01:17:17;99426.22;;;4.17;80.16
5455;BME280;2750;49.050;9.250;2023-01-28T01:22:20;99427.34;;;3.89;81.67
5455;BME280;2750;49.050;9.250;2023-01-28T01:27:22;99441.88;;;3.93;81.60
5455;BME280;2750;49.050;9.250;2023-01-28T01:32:24;99436.47;;;4.19;81.42
5455;BME280;2750;49.050;9.250;2023-01-28T01:37:27;99435.84;;;3.97;82.79
5455;BME280;2750;49.050;9.250;2023-01-28T01:42:30;99434.53;;;4.41;80.81
5455;BME280;2750;49.050;9.250;2023-01-28T01:47:37;99434.53;;;4.38;81.54
5455;BME280;2750;49.050;9.250;2023-01-28T01:52:41;99431.53;;;4.02;82.38
5455;BME280;2750;49.050;9.250;2023-01-28T01:57:45;99438.91;;;4.29;82.34
5455;BME280;2750;49.050;9.250;2023-01-28T02:02:49;99435.28;;;4.49;81.68
5455;BME280;2750;49.050;9.250;2023-01-28T02:07:54;99437.22;;;4.28;82.11
5455;BME280;2750;49.050;9.250;2023-01-28T02:13:16;99440.13;;;3.95;83.21
5455;BME280;2750;49.050;9.250;2023-01-28T02:18:19;99442.75;;;3.88;83.94
5455;BME280;2750;49.050;9.250;2023-01-28T02:23:34;99431.56;;;3.96;83.82
5455;BME280;2750;49.050;9.250;2023-01-28T02:28:46;99438.78;;;4.42;82.39
5455;BME280;2750;49.050;9.250;2023-01-28T02:33:55;99443.81;;;4.52;82.93
5455;BME280;2750;49.050;9.250;2023-01-28T02:39:04;99436.13;;;4.51;82.11
5455;BME280;2750;49.050;9.250;2023-01-28T02:44:10;99450.59;;;4.58;81.68
5455;BME280;2750;49.050;9.250;2023-01-28T02:49:15;99446.16;;;4.69;81.15
5455;BME280;2750;49.050;9.250;2023-01-28T02:54:25;99455.78;;;5.20;80.54
5455;BME280;2750;49.050;9.250;2023-01-28T02:59:35;99457.63;;;5.11;79.95
5455;BME280;2750;49.050;9.250;2023-01-28T03:04:45;99449.16;;;5.04;80.33
5455;BME280;2750;49.050;9.250;2023-01-28T03:09:49;99454.06;;;5.19;80.88
5455;BME280;2750;49.050;9.250;2023-01-28T03:14:56;99460.97;;;5.17;80.10
5455;BME280;2750;49.050;9.250;2023-01-28T03:20:15;99451.00;;;4.93;81.05
5455;BME280;2750;49.050;9.250;2023-01-28T03:25:36;99451.59;;;5.12;80.65
5455;BME280;2750;49.050;9.250;2023-01-28T03:31:04;99464.19;;;5.30;80.55
5455;BME280;2750;49.050;9.250;2023-01-28T03:36:23;99472.88;;;5.24;80.15
5455;BME280;2750;49.050;9.250;2023-01-28T03:41:54;99470.03;;;5.44;79.29
5455;BME280;2750;49.050;9.250;2023-01-28T03:46:57;99462.97;;;4.97;81.25
5455;BME280;2750;49.050;9.250;2023-01-28T03:51:59;99468.97;;;4.96;81.27
5455;BME280;2750;49.050;9.250;2023-01-28T03:57:00;99474.53;;;5.28;80.29
5455;BME280;2750;49.050;9.250;2023-01-28T04:02:03;99468.59;;;5.22;81.03
5455;BME280;2750;49.050;9.250;2023-01-28T04:07:06;99471.75;;;5.42;80.79
5455;BME280;2750;49.050;9.250;2023-01-28T04:12:08;99474.84;;;5.04;82.13
5455;BME280;2750;49.050;9.250;2023-01-28T04:17:11;99486.59;;;5.23;82.28
5455;BME280;2750;49.050;9.250;2023-01-28T04:22:12;99487.22;;;4.75;83.64
5455;BME280;2750;49.050;9.250;2023-01-28T04:27:14;99496.25;;;4.30;86.39
5455;BME280;2750;49.050;9.250;2023-01-28T04:32:17;99507.75;;;3.91;89.14
5455;BME280;2750;49.050;9.250;2023-01-28T04:37:18;99499.94;;;4.06;89.29
5455;BME280;2750;49.050;9.250;2023-01-28T04:42:20;99503.22;;;4.20;89.26
5455;BME280;2750;49.050;9.250;2023-01-28T04:47:23;99507.44;;;4.26;90.09
5455;BME280;2750;49.050;9.250;2023-01-28T04:52:24;99501.44;;;4.28;90.13
5455;BME280;2750;49.050;9.250;2023-01-28T04:57:26;99503.19;;;4.23;90.62
5455;BME280;2750;49.050;9.250;2023-01-28T05:02:28;99512.09;;;3.80;91.80
5455;BME280;2750;49.050;9.250;2023-01-28T05:07:30;99514.56;;;3.97;92.45
5455;BME280;2750;49.050;9.250;2023-01-28T05:12:32;99495.78;;;3.90;92.28
5455;BME280;2750;49.050;9.250;2023-01-28T05:17:35;99516.31;;;3.90;92.84
5455;BME280;2750;49.050;9.250;2023-01-28T05:22:37;99517.72;;;4.24;91.17
5455;BME280;2750;49.050;9.250;2023-01-28T05:27:38;99511.81;;;4.96;88.77
5455;BME280;2750;49.050;9.250;2023-01-28T05:32:42;99518.72;;;4.91;88.54
5455;BME280;2750;49.050;9.250;2023-01-28T05:37:43;99523.81;;;4.95;88.21
5455;BME280;2750;49.050;9.250;2023-01-28T05:42:45;99517.56;;;5.17;87.58
5455;BME280;2750;49.050;9.250;2023-01-28T05:47:47;99524.88;;;5.46;86.34
5455;BME280;2750;49.050;9.250;2023-01-28T05:52:49;99522.94;;;4.96;86.90
5455;BME280;2750;49.050;9.250;2023-01-28T05:57:50;99520.47;;;4.87;88.00
5455;BME280;2750;49.050;9.250;2023-01-28T06:02:53;99529.66;;;5.06;87.71
5455;BME280;2750;49.050;9.250;2023-01-28T06:07:55;99540.31;;;4.77;87.36
5455;BME280;2750;49.050;9.250;2023-01-28T06:12:56;99552.44;;;4.65;89.21
5455;BME280;2750;49.050;9.250;2023-01-28T06:17:59;99545.81;;;5.19;87.59
5455;BME280;2750;49.050;9.250;2023-01-28T06:23:01;99559.97;;;4.81;87.61
5455;BME280;2750;49.050;9.250;2023-01-28T06:28:02;99566.97;;;4.67;89.90
5455;BME280;2750;49.050;9.250;2023-01-28T06:33:05;99569.41;;;4.82;89.39
5455;BME280;2750;49.050;9.250;2023-01-28T06:38:06;99587.47;;;4.75;88.76
5455;BME280;2750;49.050;9.250;2023-01-28T06:43:08;99576.16;;;4.88;89.93
5455;BME280;2750;49.050;9.250;2023-01-28T06:48:11;99594.44;;;4.61;89.56
5455;BME280;2750;49.050;9.250;2023-01-28T06:53:12;99579.94;;;4.54;90.55
5455;BME280;2750;49.050;9.250;2023-01-28T06:58:14;99595.34;;;4.57;90.26
5455;BME280;2750;49.050;9.250;2023-01-28T07:03:17;99595.56;;;4.32;91.42
5455;BME280;2750;49.050;9.250;2023-01-28T07:08:18;99600.81;;;4.14;91.69
5455;BME280;2750;49.050;9.250;2023-01-28T07:13:20;99611.03;;;4.22;92.09
5455;BME280;2750;49.050;9.250;2023-01-28T07:18:23;99605.69;;;4.51;91.01
5455;BME280;2750;49.050;9.250;2023-01-28T07:23:24;99614.31;;;4.42;90.63
5455;BME280;2750;49.050;9.250;2023-01-28T07:28:26;99617.50;;;4.70;89.83
5455;BME280;2750;49.050;9.250;2023-01-28T07:33:29;99621.84;;;4.62;90.37
5455;BME280;2750;49.050;9.250;2023-01-28T07:38:30;99624.31;;;4.72;90.12
5455;BME280;2750;49.050;9.250;2023-01-28T07:43:32;99623.00;;;4.27;90.55
5455;BME280;2750;49.050;9.250;2023-01-28T07:48:35;99626.34;;;4.36;91.48
5455;BME280;2750;49.050;9.250;2023-01-28T07:53:36;99632.25;;;4.47;91.21
5455;BME280;2750;49.050;9.250;2023-01-28T07:58:38;99638.25;;;4.46;90.47
5455;BME280;2750;49.050;9.250;2023-01-28T08:03:41;99634.84;;;4.44;90.84
5455;BME280;2750;49.050;9.250;2023-01-28T08:08:42;99636.72;;;4.22;91.85
5455;BME280;2750;49.050;9.250;2023-01-28T08:13:43;99640.69;;;4.61;91.03
5455;BME280;2750;49.050;9.250;2023-01-28T08:18:46;99647.75;;;4.36;90.62
5455;BME280;2750;49.050;9.250;2023-01-28T08:23:48;99651.94;;;4.48;91.03
5455;BME280;2750;49.050;9.250;2023-01-28T08:28:49;99650.88;;;4.74;89.84
5455;BME280;2750;49.050;9.250;2023-01-28T08:33:52;99652.44;;;4.88;89.11
5455;BME280;2750;49.050;9.250;2023-01-28T08:38:54;99653.59;;;5.40;87.56
5455;BME280;2750;49.050;9.250;2023-01-28T08:43:55;99647.69;;;5.30;87.55
5455;BME280;2750;49.050;9.250;2023-01-28T08:48:58;99645.97;;;5.33;87.54
5455;BME280;2750;49.050;9.250;2023-01-28T08:54:00;99654.22;;;4.79;88.59
5455;BME280;2750;49.050;9.250;2023-01-28T08:59:02;99655.44;;;4.41;91.08
5455;BME280;2750;49.050;9.250;2023-01-28T09:04:05;99661.50;;;4.32;90.51
5455;BME280;2750;49.050;9.250;2023-01-28T09:09:06;99663.47;;;3.88;92.26
5455;BME280;2750;49.050;9.250;2023-01-28T09:14:08;99676.16;;;4.10;92.28
5455;BME280;2750;49.050;9.250;2023-01-28T09:19:11;99678.56;;;4.38;92.01
5455;BME280;2750;49.050;9.250;2023-01-28T09:24:13;99688.69;;;4.57;90.61
5455;BME280;2750;49.050;9.250;2023-01-28T09:29:15;99688.81;;;4.42;90.87
5455;BME280;2750;49.050;9.250;2023-01-28T09:34:17;99692.63;;;4.96;89.75
5455;BME280;2750;49.050;9.250;2023-01-28T09:39:19;99697.88;;;4.84;89.53
5455;BME280;2750;49.050;9.250;2023-01-28T09:44:32;99710.03;;;4.64;89.64
5455;BME280;2750;49.050;9.250;2023-01-28T09:49:42;99706.59;;;4.65;89.08
5455;BME280;2750;49.050;9.250;2023-01-28T09:54:48;99709.09;;;4.77;88.55
5455;BME280;2750;49.050;9.250;2023-01-28T09:59:50;99709.28;;;4.51;89.38
5455;BME280;2750;49.050;9.250;2023-01-28T10:04:58;99703.66;;;5.07;88.26
5455;BME280;2750;49.050;9.250;2023-01-28T10:10:09;99709.66;;;5.09;87.71
5455;BME280;2750;49.050;9.250;2023-01-28T10:15:27;99698.81;;;4.78;88.23
5455;BME280;2750;49.050;9.250;2023-01-28T10:20:37;99703.00;;;4.87;88.72
5455;BME280;2750;49.050;9.250;2023-01-28T10:25:42;99691.97;;;4.73;91.06
5455;BME280;2750;49.050;9.250;2023-01-28T10:30:46;99696.00;;;5.06;89.29
5455;BME280;2750;49.050;9.250;2023-01-28T10:35:50;99692.72;;;4.87;89.91
5455;BME280;2750;49.050;9.250;2023-01-28T10:40:51;99686.53;;;5.09;89.64
5455;BME280;2750;49.050;9.250;2023-01-28T10:45:56;99692.94;;;4.63;90.66
5455;BME280;2750;49.050;9.250;2023-01-28T10:51:02;99703.81;;;4.91;90.40
5455;BME280;2750;49.050;9.250;2023-01-28T10:56:07;99705.00;;;4.52;91.80
5455;BME280;2750;49.050;9.250;2023-01-28T11:01:10;99699.41;;;3.88;94.14
5455;BME280;2750;49.050;9.250;2023-01-28T11:06:23;99702.56;;;4.33;93.57
5455;BME280;2750;49.050;9.250;2023-01-28T11:11:27;99705.22;;;4.18;92.78
5455;BME280;2750;49.050;9.250;2023-01-28T11:16:29;99706.06;;;4.20;93.89
5455;BME280;2750;49.050;9.250;2023-01-28T11:21:33;99707.00;;;4.09;93.78
5455;BME280;2750;49.050;9.250;2023-01-28T11:26:38;99722.28;;;4.28;93.46
5455;BME280;2750;49.050;9.250;2023-01-28T11:31:42;99712.69;;;4.55;93.01
5455;BME280;2750;49.050;9.250;2023-01-28T11:36:50;99713.81;;;4.14;94.27
5455;BME280;2750;49.050;9.250;2023-01-28T11:41:52;99712.94;;;4.15;93.96
5455;BME280;2750;49.050;9.250;2023-01-28T11:47:22;99714.06;;;3.63;96.04
5455;BME280;2750;49.050;9.250;2023-01-28T11:52:40;99717.50;;;3.56;96.03
5455;BME280;2750;49.050;9.250;2023-01-28T11:57:52;99713.22;;;3.64;95.55
5455;BME280;2750;49.050;9.250;2023-01-28T12:03:08;99720.91;;;3.55;95.13
5455;BME280;2750;49.050;9.250;2023-01-28T12:08:20;99716.53;;;3.82;94.00
5455;BME280;2750;49.050;9.250;2023-01-28T12:13:32;99719.19;;;3.63;92.81
5455;BME280;2750;49.050;9.250;2023-01-28T12:18:52;99712.34;;;3.62;91.73
5455;BME280;2750;49.050;9.250;2023-01-28T12:24:11;99725.16;;;3.62;91.31
5455;BME280;2750;49.050;9.250;2023-01-28T12:29:26;99711.47;;;3.64;89.51
5455;BME280;2750;49.050;9.250;2023-01-28T12:34:52;99715.75;;;3.70;89.30
5455;BME280;2750;49.050;9.250;2023-01-28T12:40:09;99701.84;;;4.10;88.55
5455;BME280;2750;49.050;9.250;2023-01-28T12:45:17;99692.38;;;4.20;87.00
5455;BME280;2750;49.050;9.250;2023-01-28T12:50:24;99684.53;;;4.40;86.67
5455;BME280;2750;49.050;9.250;2023-01-28T12:55:37;99686.91;;;4.64;86.35
5455;BME280;2750;49.050;9.250;2023-01-28T13:00:44;99683.59;;;4.51;86.34
5455;BME280;2750;49.050;9.250;2023-01-28T13:05:50;99684.06;;;4.97;84.53
5455;BME280;2750;49.050;9.250;2023-01-28T13:10:55;99688.38;;;4.91;84.73
5455;BME280;2750;49.050;9.250;2023-01-28T13:15:58;99691.94;;;4.79;84.64
5455;BME280;2750;49.050;9.250;2023-01-28T13:21:00;99682.13;;;4.17;85.59
5455;BME280;2750;49.050;9.250;2023-01-28T13:26:11;99689.91;;;3.99;85.81
5455;BME280;2750;49.050;9.250;2023-01-28T13:31:36;99687.69;;;4.75;84.36
5455;BME280;2750;49.050;9.250;2023-01-28T13:36:43;99696.25;;;4.75;83.89
5455;BME280;2750;49.050;9.250;2023-01-28T13:41:49;99687.75;;;4.66;83.53
5455;BME280;2750;49.050;9.250;2023-01-28T13:46:53;99699.19;;;4.24;84.07
5455;BME280;2750;49.050;9.250;2023-01-28T13:51:58;99708.44;;;4.52;83.47
5455;BME280;2750;49.050;9.250;2023-01-28T13:57:20;99709.97;;;4.73;83.23
5455;BME280;2750;49.050;9.250;2023-01-28T14:02:52;99711.56;;;4.89;81.57
5455;BME280;2750;49.050;9.250;2023-01-28T14:14:06;99712.53;;;4.74;81.69
5455;BME280;2750;49.050;9.250;2023-01-28T14:19:15;99728.84;;;4.69;81.30
5455;BME280;2750;49.050;9.250;2023-01-28T14:24:17;99727.34;;;4.42;82.75
5455;BME280;2750;49.050;9.250;2023-01-28T14:29:45;99735.66;;;4.79;81.15
5455;BME280;2750;49.050;9.250;2023-01-28T14:35:00;99746.13;;;4.52;82.49
5455;BME280;2750;49.050;9.250;2023-01-28T14:40:07;99755.13;;;5.03;80.92
5455;BME280;2750;49.050;9.250;2023-01-28T14:45:24;99743.50;;;4.58;80.53
5455;BME280;2750;49.050;9.250;2023-01-28T14:50:46;99740.06;;;4.59;80.74
5455;BME280;2750;49.050;9.250;2023-01-28T14:55:57;99759.09;;;4.26;81.96
5455;BME280;2750;49.050;9.250;2023-01-28T15:01:19;99768.56;;;4.18;81.46
5455;BME280;2750;49.050;9.250;2023-01-28T15:06:22;99766.75;;;4.38;81.44
5455;BME280;2750;49.050;9.250;2023-01-28T15:11:25;99780.38;;;4.51;81.38
5455;BME280;2750;49.050;9.250;2023-01-28T15:16:29;99772.81;;;4.23;83.36
5455;BME280;2750;49.050;9.250;2023-01-28T15:21:30;99786.59;;;4.04;84.92
5455;BME280;2750;49.050;9.250;2023-01-28T15:26:34;99778.00;;;4.14;84.11
5455;BME280;2750;49.050;9.250;2023-01-28T15:31:37;99784.94;;;3.88;83.91
5455;BME280;2750;49.050;9.250;2023-01-28T15:36:39;99797.72;;;4.08;83.27
5455;BME280;2750;49.050;9.250;2023-01-28T15:41:43;99800.25;;;4.12;83.76
5455;BME280;2750;49.050;9.250;2023-01-28T15:46:47;99795.00;;;4.38;82.27
5455;BME280;2750;49.050;9.250;2023-01-28T15:51:49;99801.09;;;4.14;83.33
5455;BME280;2750;49.050;9.250;2023-01-28T15:56:53;99806.31;;;4.01;83.45
5455;BME280;2750;49.050;9.250;2023-01-28T16:02:21;99804.53;;;4.12;83.27
5455;BME280;2750;49.050;9.250;2023-01-28T16:07:23;99816.63;;;3.87;82.89
5455;BME280;2750;49.050;9.250;2023-01-28T16:12:25;99815.63;;;4.18;81.73
5455;BME280;2750;49.050;9.250;2023-01-28T16:17:30;99820.75;;;4.24;81.49
5455;BME280;2750;49.050;9.250;2023-01-28T16:22:38;99819.97;;;4.07;80.95
5455;BME280;2750;49.050;9.250;2023-01-28T16:27:42;99825.19;;;3.80;82.73
5455;BME280;2750;49.050;9.250;2023-01-28T16:32:45;99816.69;;;3.54;82.70
5455;BME280;2750;49.050;9.250;2023-01-28T16:37:47;99828.66;;;3.64;81.97
5455;BME280;2750;49.050;9.250;2023-01-28T16:42:52;99809.78;;;3.77;81.81
5455;BME280;2750;49.050;9.250;2023-01-28T16:47:55;99817.50;;;3.74;81.79
5455;BME280;2750;49.050;9.250;2023-01-28T16:52:58;99819.22;;;3.73;81.71
5455;BME280;2750;49.050;9.250;2023-01-28T16:57:59;99816.69;;;3.63;82.11
5455;BME280;2750;49.050;9.250;2023-01-28T17:03:02;99824.38;;;3.49;82.01
5455;BME280;2750;49.050;9.250;2023-01-28T17:08:04;99821.78;;;3.57;82.59
5455;BME280;2750;49.050;9.250;2023-01-28T17:13:06;99814.97;;;3.66;81.89
5455;BME280;2750;49.050;9.250;2023-01-28T17:18:09;99827.81;;;3.48;81.75
5455;BME280;2750;49.050;9.250;2023-01-28T17:23:13;99839.78;;;3.46;81.95
5455;BME280;2750;49.050;9.250;2023-01-28T17:28:14;99845.75;;;3.63;82.30
5455;BME280;2750;49.050;9.250;2023-01-28T17:33:17;99856.03;;;3.47;82.25
5455;BME280;2750;49.050;9.250;2023-01-28T17:38:19;99853.41;;;3.77;81.88
5455;BME280;2750;49.050;9.250;2023-01-28T17:43:20;99852.56;;;3.75;81.11
5455;BME280;2750;49.050;9.250;2023-01-28T17:48:23;99862.84;;;3.75;81.19
5455;BME280;2750;49.050;9.250;2023-01-28T17:53:25;99863.66;;;3.89;81.43
5455;BME280;2750;49.050;9.250;2023-01-28T17:58:26;99854.19;;;4.09;80.19
5455;BME280;2750;49.050;9.250;2023-01-28T18:03:29;99860.97;;;4.31;79.53
5455;BME280;2750;49.050;9.250;2023-01-28T18:08:31;99867.03;;;4.08;80.63
5455;BME280;2750;49.050;9.250;2023-01-28T18:13:34;99861.91;;;4.06;80.05
5455;BME280;2750;49.050;9.250;2023-01-28T18:18:37;99868.78;;;3.88;80.76
5455;BME280;2750;49.050;9.250;2023-01-28T18:23:38;99862.84;;;3.54;81.63
5455;BME280;2750;49.050;9.250;2023-01-28T18:28:40;99880.81;;;3.55;81.75
5455;BME280;2750;49.050;9.250;2023-01-28T18:33:43;99891.94;;;3.56;82.58
5455;BME280;2750;49.050;9.250;2023-01-28T18:38:44;99895.31;;;3.88;81.54
5455;BME280;2750;49.050;9.250;2023-01-28T18:43:46;99897.91;;;3.70;81.60
5455;BME280;2750;49.050;9.250;2023-01-28T18:48:49;99890.09;;;4.24;79.70
5455;BME280;2750;49.050;9.250;2023-01-28T18:53:50;99893.38;;;4.63;78.47
5455;BME280;2750;49.050;9.250;2023-01-28T18:58:55;99906.31;;;4.36;78.44
5455;BME280;2750;49.050;9.250;2023-01-28T19:03:59;99902.97;;;4.14;78.71
5455;BME280;2750;49.050;9.250;2023-01-28T19:09:03;99903.88;;;3.69;78.63
5455;BME280;2750;49.050;9.250;2023-01-28T19:14:05;99903.03;;;3.58;79.81
5455;BME280;2750;49.050;9.250;2023-01-28T19:19:08;99907.31;;;3.78;79.30
5455;BME280;2750;49.050;9.250;2023-01-28T19:24:11;99919.25;;;4.01;78.50
5455;BME280;2750;49.050;9.250;2023-01-28T19:29:14;99908.94;;;4.14;77.77
5455;BME280;2750;49.050;9.250;2023-01-28T19:34:17;99917.53;;;4.00;77.46
5455;BME280;2750;49.050;9.250;2023-01-28T19:39:18;99910.47;;;4.64;76.01
5455;BME280;2750;49.050;9.250;2023-01-28T19:44:20;99907.25;;;4.07;77.38
5455;BME280;2750;49.050;9.250;2023-01-28T19:49:23;99911.56;;;3.93;77.82
5455;BME280;2750;49.050;9.250;2023-01-28T19:54:24;99912.44;;;3.44;79.15
5455;BME280;2750;49.050;9.250;2023-01-28T19:59:26;99915.00;;;3.53;79.26
5455;BME280;2750;49.050;9.250;2023-01-28T20:04:29;99909.88;;;3.37;79.79
5455;BME280;2750;49.050;9.250;2023-01-28T20:09:30;99930.38;;;3.30;79.12
5455;BME280;2750;49.050;9.250;2023-01-28T20:14:32;99938.94;;;3.32;79.99
5455;BME280;2750;49.050;9.250;2023-01-28T20:19:35;99949.16;;;3.23;80.24
5455;BME280;2750;49.050;9.250;2023-01-28T20:24:37;99951.50;;;2.49;81.52
5455;BME280;2750;49.050;9.250;2023-01-28T20:29:38;99970.28;;;2.54;81.68
5455;BME280;2750;49.050;9.250;2023-01-28T20:34:41;99972.69;;;2.26;81.54
5455;BME280;2750;49.050;9.250;2023-01-28T20:39:43;99981.09;;;2.03;82.65
5455;BME280;2750;49.050;9.250;2023-01-28T20:44:44;99978.41;;;1.89;82.43
5455;BME280;2750;49.050;9.250;2023-01-28T20:49:47;99978.59;;;2.10;82.50
5455;BME280;2750;49.050;9.250;2023-01-28T20:54:49;99994.16;;;2.50;82.28
5455;BME280;2750;49.050;9.250;2023-01-28T20:59:50;99978.69;;;2.28;81.42
5455;BME280;2750;49.050;9.250;2023-01-28T21:04:53;99979.69;;;2.53;80.43
5455;BME280;2750;49.050;9.250;2023-01-28T21:09:55;99999.38;;;2.60;80.01
5455;BME280;2750;49.050;9.250;2023-01-28T21:14:56;100001.50;;;1.95;81.13
5455;BME280;2750;49.050;9.250;2023-01-28T21:19:59;99993.13;;;2.16;81.19
5455;BME280;2750;49.050;9.250;2023-01-28T21:25:01;99982.09;;;2.27;81.15
5455;BME280;2750;49.050;9.250;2023-01-28T21:30:03;99979.88;;;2.91;79.22
5455;BME280;2750;49.050;9.250;2023-01-28T21:35:07;99980.81;;;3.31;77.38
5455;BME280;2750;49.050;9.250;2023-01-28T21:40:10;99979.13;;;3.53;75.22
5455;BME280;2750;49.050;9.250;2023-01-28T21:45:12;99981.41;;;2.57;77.50
5455;BME280;2750;49.050;9.250;2023-01-28T21:50:15;99986.75;;;3.09;76.43
5455;BME280;2750;49.050;9.250;2023-01-28T21:55:17;99992.84;;;3.49;75.43
5455;BME280;2750;49.050;9.250;2023-01-28T22:00:19;99984.31;;;3.91;74.69
5455;BME280;2750;49.050;9.250;2023-01-28T22:05:22;99991.13;;;4.11;74.48
5455;BME280;2750;49.050;9.250;2023-01-28T22:10:24;99989.38;;;4.41;73.18
5455;BME280;2750;49.050;9.250;2023-01-28T22:15:26;99997.06;;;4.48;72.46
5455;BME280;2750;49.050;9.250;2023-01-28T22:20:28;99989.41;;;4.28;72.79
5455;BME280;2750;49.050;9.250;2023-01-28T22:25:33;99996.25;;;4.20;72.81
5455;BME280;2750;49.050;9.250;2023-01-28T22:30:35;99997.09;;;3.48;74.85
5455;BME280;2750;49.050;9.250;2023-01-28T22:35:38;99982.56;;;3.73;73.81
5455;BME280;2750;49.050;9.250;2023-01-28T22:40:39;99980.00;;;3.73;74.66
5455;BME280;2750;49.050;9.250;2023-01-28T22:45:41;99989.41;;;3.44;74.96
5455;BME280;2750;49.050;9.250;2023-01-28T22:50:43;99970.59;;;3.52;75.05
5455;BME280;2750;49.050;9.250;2023-01-28T22:55:49;99975.59;;;2.90;75.45
5455;BME280;2750;49.050;9.250;2023-01-28T23:00:51;99978.09;;;2.78;75.67
5455;BME280;2750;49.050;9.250;2023-01-28T23:05:58;99980.66;;;2.75;75.98
5455;BME280;2750;49.050;9.250;2023-01-28T23:11:00;99975.69;;;3.22;74.45
5455;BME280;2750;49.050;9.250;2023-01-28T23:16:02;99971.38;;;3.10;73.83
5455;BME280;2750;49.050;9.250;2023-01-28T23:21:24;99963.75;;;3.41;73.90
5455;BME280;2750;49.050;9.250;2023-01-28T23:26:44;99971.44;;;3.53;72.52
5455;BME280;2750;49.050;9.250;2023-01-28T23:31:46;99962.00;;;4.24;71.56
5455;BME280;2750;49.050;9.250;2023-01-28T23:36:49;99961.94;;;4.46;71.01
5455;BME280;2750;49.050;9.250;2023-01-28T23:41:51;99956.91;;;3.52;71.54
5455;BME280;2750;49.050;9.250;2023-01-28T23:46:53;99962.81;;;3.05;74.24
5455;BME280;2750;49.050;9.250;2023-01-28T23:51:56;99961.75;;;2.52;76.41
5455;BME280;2750;49.050;9.250;2023-01-28T23:56:58;99954.84;;;2.35;77.74
